sensor_id;sensor_type;location;lat;lon;timestamp;P1;durP1;ratioP1;P2;durP2;ratioP2
44746;SDS011;30472;49.490;10.972;2023-05-10T00:02:23;8.07;;;6.87;;
44746;SDS011;30472;49.490;10.972;2023-05-10T00:04:49;10.17;;;7.53;;
44746;SDS011;30472;49.490;10.972;2023-05-10T00:07:15;7.90;;;7.17;;
44746;SDS011;30472;49.490;10.972;2023-05-10T00:09:42;7.80;;;6.93;;
44746;SDS011;30472;49.490;10.972;2023-05-10T00:12:08;9.90;;;8.33;;
44746;SDS011;30472;49.490;10.972;2023-05-10T00:14:33;10.30;;;7.87;;
44746;SDS011;30472;49.490;10.972;2023-05-10T00:16:59;8.30;;;7.50;;
44746;SDS011;30472;49.490;10.972;2023-05-10T00:19:25;9.20;;;8.40;;
44746;SDS011;30472;49.490;10.972;2023-05-10T00:21:50;8.70;;;7.87;;
44746;SDS011;30472;49.490;10.972;2023-05-10T00:24:16;9.70;;;8.70;;
44746;SDS011;30472;49.490;10.972;2023-05-10T00:26:42;9.10;;;8.23;;
44746;SDS011;30472;49.490;10.972;2023-05-10T00:29:07;8.87;;;7.97;;
44746;SDS011;30472;49.490;10.972;2023-05-10T00:31:33;9.40;;;8.40;;
44746;SDS011;30472;49.490;10.972;2023-05-10T00:33:58;9.47;;;8.47;;
44746;SDS011;30472;49.490;10.972;2023-05-10T00:36:24;9.53;;;8.57;;
44746;SDS011;30472;49.490;10.972;2023-05-10T00:38:49;10.83;;;8.90;;
44746;SDS011;30472;49.490;10.972;2023-05-10T00:41:15;10.20;;;9.17;;
44746;SDS011;30472;49.490;10.972;2023-05-10T00:43:41;9.73;;;8.43;;
44746;SDS011;30472;49.490;10.972;2023-05-10T00:46:06;11.40;;;9.67;;
44746;SDS011;30472;49.490;10.972;2023-05-10T00:48:32;10.17;;;9.17;;
44746;SDS011;30472;49.490;10.972;2023-05-10T00:50:58;10.50;;;9.50;;
44746;SDS011;30472;49.490;10.972;2023-05-10T00:53:25;11.17;;;10.10;;
44746;SDS011;30472;49.490;10.972;2023-05-10T00:55:51;10.33;;;9.33;;
44746;SDS011;30472;49.490;10.972;2023-05-10T00:58:17;10.43;;;9.53;;
44746;SDS011;30472;49.490;10.972;2023-05-10T01:00:43;10.70;;;9.60;;
44746;SDS011;30472;49.490;10.972;2023-05-10T01:03:13;10.83;;;9.80;;
44746;SDS011;30472;49.490;10.972;2023-05-10T01:05:39;10.10;;;9.10;;
44746;SDS011;30472;49.490;10.972;2023-05-10T01:08:04;10.37;;;9.37;;
44746;SDS011;30472;49.490;10.972;2023-05-10T01:10:31;11.17;;;9.77;;
44746;SDS011;30472;49.490;10.972;2023-05-10T01:12:57;10.10;;;8.97;;
44746;SDS011;30472;49.490;10.972;2023-05-10T01:15:24;10.20;;;9.20;;
44746;SDS011;30472;49.490;10.972;2023-05-10T01:17:50;10.37;;;9.27;;
44746;SDS011;30472;49.490;10.972;2023-05-10T01:20:16;9.03;;;8.23;;
44746;SDS011;30472;49.490;10.972;2023-05-10T01:22:49;9.60;;;8.70;;
44746;SDS011;30472;49.490;10.972;2023-05-10T01:25:53;8.83;;;8.03;;
44746;SDS011;30472;49.490;10.972;2023-05-10T01:28:43;9.10;;;8.27;;
44746;SDS011;30472;49.490;10.972;2023-05-10T01:31:40;8.97;;;8.07;;
44746;SDS011;30472;49.490;10.972;2023-05-10T01:34:37;8.93;;;8.13;;
44746;SDS011;30472;49.490;10.972;2023-05-10T01:37:13;9.67;;;8.30;;
44746;SDS011;30472;49.490;10.972;2023-05-10T01:39:45;9.03;;;8.13;;
44746;SDS011;30472;49.490;10.972;2023-05-10T01:42:23;8.10;;;7.40;;
44746;SDS011;30472;49.490;10.972;2023-05-10T01:44:58;9.07;;;8.27;;
44746;SDS011;30472;49.490;10.972;2023-05-10T01:48:02;9.07;;;8.17;;
44746;SDS011;30472;49.490;10.972;2023-05-10T01:50:31;11.00;;;8.37;;
44746;SDS011;30472;49.490;10.972;2023-05-10T01:52:58;9.77;;;7.87;;
44746;SDS011;30472;49.490;10.972;2023-05-10T01:55:26;8.73;;;7.93;;
44746;SDS011;30472;49.490;10.972;2023-05-10T01:58:09;8.87;;;8.00;;
44746;SDS011;30472;49.490;10.972;2023-05-10T02:00:36;9.37;;;8.33;;
44746;SDS011;30472;49.490;10.972;2023-05-10T02:03:08;8.17;;;7.47;;
44746;SDS011;30472;49.490;10.972;2023-05-10T02:05:34;9.90;;;7.30;;
44746;SDS011;30472;49.490;10.972;2023-05-10T02:08:01;8.27;;;7.43;;
44746;SDS011;30472;49.490;10.972;2023-05-10T02:10:30;9.10;;;8.20;;
44746;SDS011;30472;49.490;10.972;2023-05-10T02:12:56;8.47;;;7.63;;
44746;SDS011;30472;49.490;10.972;2023-05-10T02:15:24;8.77;;;7.90;;
44746;SDS011;30472;49.490;10.972;2023-05-10T02:17:51;9.53;;;8.60;;
44746;SDS011;30472;49.490;10.972;2023-05-10T02:20:19;7.83;;;7.03;;
44746;SDS011;30472;49.490;10.972;2023-05-10T02:22:47;7.97;;;6.80;;
44746;SDS011;30472;49.490;10.972;2023-05-10T02:25:18;7.27;;;6.53;;
44746;SDS011;30472;49.490;10.972;2023-05-10T02:27:46;8.23;;;6.73;;
44746;SDS011;30472;49.490;10.972;2023-05-10T02:30:13;7.20;;;6.50;;
44746;SDS011;30472;49.490;10.972;2023-05-10T02:32:39;8.37;;;6.00;;
44746;SDS011;30472;49.490;10.972;2023-05-10T02:35:05;9.07;;;6.67;;
44746;SDS011;30472;49.490;10.972;2023-05-10T02:37:33;6.77;;;6.17;;
44746;SDS011;30472;49.490;10.972;2023-05-10T02:40:00;6.77;;;6.17;;
44746;SDS011;30472;49.490;10.972;2023-05-10T02:42:28;6.43;;;5.47;;
44746;SDS011;30472;49.490;10.972;2023-05-10T02:44:56;7.90;;;4.90;;
44746;SDS011;30472;49.490;10.972;2023-05-10T02:47:25;5.37;;;4.87;;
44746;SDS011;30472;49.490;10.972;2023-05-10T02:49:52;5.07;;;4.63;;
44746;SDS011;30472;49.490;10.972;2023-05-10T02:52:19;5.93;;;5.40;;
44746;SDS011;30472;49.490;10.972;2023-05-10T02:54:50;4.70;;;4.30;;
44746;SDS011;30472;49.490;10.972;2023-05-10T02:57:22;4.73;;;4.33;;
44746;SDS011;30472;49.490;10.972;2023-05-10T02:59:52;4.60;;;4.20;;
44746;SDS011;30472;49.490;10.972;2023-05-10T03:02:18;4.77;;;3.90;;
44746;SDS011;30472;49.490;10.972;2023-05-10T03:04:43;3.70;;;3.17;;
44746;SDS011;30472;49.490;10.972;2023-05-10T03:07:09;4.30;;;3.10;;
44746;SDS011;30472;49.490;10.972;2023-05-10T03:09:35;3.50;;;3.20;;
44746;SDS011;30472;49.490;10.972;2023-05-10T03:12:03;3.90;;;2.60;;
44746;SDS011;30472;49.490;10.972;2023-05-10T03:14:40;3.07;;;2.83;;
44746;SDS011;30472;49.490;10.972;2023-05-10T03:19:55;5.70;;;2.90;;
44746;SDS011;30472;49.490;10.972;2023-05-10T03:22:33;2.50;;;2.33;;
44746;SDS011;30472;49.490;10.972;2023-05-10T03:25:04;2.80;;;2.60;;
44746;SDS011;30472;49.490;10.972;2023-05-10T03:27:31;3.43;;;2.40;;
44746;SDS011;30472;49.490;10.972;2023-05-10T03:29:58;1.77;;;1.67;;
44746;SDS011;30472;49.490;10.972;2023-05-10T03:32:26;2.13;;;2.03;;
44746;SDS011;30472;49.490;10.972;2023-05-10T03:34:55;2.10;;;2.00;;
44746;SDS011;30472;49.490;10.972;2023-05-10T03:37:20;2.03;;;1.93;;
44746;SDS011;30472;49.490;10.972;2023-05-10T03:39:46;2.00;;;1.90;;
44746;SDS011;30472;49.490;10.972;2023-05-10T03:42:11;1.67;;;1.50;;
44746;SDS011;30472;49.490;10.972;2023-05-10T03:44:38;1.70;;;1.60;;
44746;SDS011;30472;49.490;10.972;2023-05-10T03:47:04;1.30;;;1.30;;
44746;SDS011;30472;49.490;10.972;2023-05-10T03:49:30;2.20;;;1.40;;
44746;SDS011;30472;49.490;10.972;2023-05-10T03:51:55;1.80;;;1.70;;
44746;SDS011;30472;49.490;10.972;2023-05-10T03:54:21;1.40;;;1.30;;
44746;SDS011;30472;49.490;10.972;2023-05-10T03:56:46;4.00;;;1.47;;
44746;SDS011;30472;49.490;10.972;2023-05-10T03:59:13;1.73;;;1.63;;
44746;SDS011;30472;49.490;10.972;2023-05-10T04:01:38;1.70;;;1.60;;
44746;SDS011;30472;49.490;10.972;2023-05-10T04:04:04;1.53;;;1.43;;
44746;SDS011;30472;49.490;10.972;2023-05-10T04:06:30;2.43;;;1.43;;
44746;SDS011;30472;49.490;10.972;2023-05-10T04:08:55;1.50;;;1.40;;
44746;SDS011;30472;49.490;10.972;2023-05-10T04:11:24;2.17;;;1.70;;
44746;SDS011;30472;49.490;10.972;2023-05-10T04:13:50;1.70;;;1.60;;
44746;SDS011;30472;49.490;10.972;2023-05-10T04:16:15;2.40;;;1.17;;
44746;SDS011;30472;49.490;10.972;2023-05-10T04:18:41;3.33;;;1.37;;
44746;SDS011;30472;49.490;10.972;2023-05-10T04:21:13;2.33;;;1.47;;
44746;SDS011;30472;49.490;10.972;2023-05-10T04:23:39;3.07;;;1.60;;
44746;SDS011;30472;49.490;10.972;2023-05-10T04:26:05;1.70;;;1.60;;
44746;SDS011;30472;49.490;10.972;2023-05-10T04:28:30;1.40;;;1.40;;
44746;SDS011;30472;49.490;10.972;2023-05-10T04:31:03;1.60;;;1.50;;
44746;SDS011;30472;49.490;10.972;2023-05-10T04:33:32;2.77;;;1.60;;
44746;SDS011;30472;49.490;10.972;2023-05-10T04:35:59;2.13;;;1.67;;
44746;SDS011;30472;49.490;10.972;2023-05-10T04:38:25;2.10;;;1.50;;
44746;SDS011;30472;49.490;10.972;2023-05-10T04:40:50;1.60;;;1.50;;
44746;SDS011;30472;49.490;10.972;2023-05-10T04:43:16;1.20;;;1.20;;
44746;SDS011;30472;49.490;10.972;2023-05-10T04:45:41;2.60;;;1.40;;
44746;SDS011;30472;49.490;10.972;2023-05-10T04:48:07;3.63;;;1.30;;
44746;SDS011;30472;49.490;10.972;2023-05-10T04:50:33;3.13;;;1.53;;
44746;SDS011;30472;49.490;10.972;2023-05-10T04:52:58;1.83;;;1.73;;
44746;SDS011;30472;49.490;10.972;2023-05-10T04:55:24;1.70;;;1.60;;
44746;SDS011;30472;49.490;10.972;2023-05-10T04:57:49;2.20;;;1.50;;
44746;SDS011;30472;49.490;10.972;2023-05-10T05:00:15;2.00;;;1.60;;
44746;SDS011;30472;49.490;10.972;2023-05-10T05:02:44;1.30;;;1.30;;
44746;SDS011;30472;49.490;10.972;2023-05-10T05:05:11;2.10;;;1.40;;
44746;SDS011;30472;49.490;10.972;2023-05-10T05:07:37;1.67;;;1.57;;
44746;SDS011;30472;49.490;10.972;2023-05-10T05:10:03;3.40;;;1.27;;
44746;SDS011;30472;49.490;10.972;2023-05-10T05:12:33;1.60;;;1.47;;
44746;SDS011;30472;49.490;10.972;2023-05-10T05:14:59;1.53;;;1.20;;
44746;SDS011;30472;49.490;10.972;2023-05-10T05:17:25;1.50;;;1.40;;
44746;SDS011;30472;49.490;10.972;2023-05-10T05:19:50;1.43;;;1.40;;
44746;SDS011;30472;49.490;10.972;2023-05-10T05:22:16;2.77;;;1.60;;
44746;SDS011;30472;49.490;10.972;2023-05-10T05:24:41;1.53;;;1.40;;
44746;SDS011;30472;49.490;10.972;2023-05-10T05:27:07;1.33;;;1.33;;
44746;SDS011;30472;49.490;10.972;2023-05-10T05:29:32;1.60;;;1.50;;
44746;SDS011;30472;49.490;10.972;2023-05-10T05:31:58;1.63;;;1.53;;
44746;SDS011;30472;49.490;10.972;2023-05-10T05:34:24;2.53;;;1.50;;
44746;SDS011;30472;49.490;10.972;2023-05-10T05:36:50;1.70;;;1.60;;
44746;SDS011;30472;49.490;10.972;2023-05-10T05:39:15;1.70;;;1.60;;
44746;SDS011;30472;49.490;10.972;2023-05-10T05:41:41;1.60;;;1.50;;
44746;SDS011;30472;49.490;10.972;2023-05-10T05:44:07;3.50;;;1.80;;
44746;SDS011;30472;49.490;10.972;2023-05-10T05:46:33;4.10;;;1.50;;
44746;SDS011;30472;49.490;10.972;2023-05-10T05:48:58;1.60;;;1.50;;
44746;SDS011;30472;49.490;10.972;2023-05-10T05:51:24;1.83;;;1.70;;
44746;SDS011;30472;49.490;10.972;2023-05-10T05:53:50;2.90;;;1.57;;
44746;SDS011;30472;49.490;10.972;2023-05-10T05:56:15;1.63;;;1.53;;
44746;SDS011;30472;49.490;10.972;2023-05-10T05:58:42;1.80;;;1.70;;
44746;SDS011;30472;49.490;10.972;2023-05-10T06:01:09;2.63;;;1.60;;
44746;SDS011;30472;49.490;10.972;2023-05-10T06:03:34;1.57;;;1.50;;
44746;SDS011;30472;49.490;10.972;2023-05-10T06:06:00;1.57;;;1.47;;
44746;SDS011;30472;49.490;10.972;2023-05-10T06:08:25;1.50;;;1.40;;
44746;SDS011;30472;49.490;10.972;2023-05-10T06:10:51;1.33;;;1.20;;
44746;SDS011;30472;49.490;10.972;2023-05-10T06:13:16;4.87;;;1.70;;
44746;SDS011;30472;49.490;10.972;2023-05-10T06:15:42;1.50;;;1.40;;
44746;SDS011;30472;49.490;10.972;2023-05-10T06:18:08;2.60;;;1.60;;
44746;SDS011;30472;49.490;10.972;2023-05-10T06:20:33;1.50;;;1.40;;
44746;SDS011;30472;49.490;10.972;2023-05-10T06:22:59;1.40;;;1.30;;
44746;SDS011;30472;49.490;10.972;2023-05-10T06:25:24;2.00;;;1.63;;
44746;SDS011;30472;49.490;10.972;2023-05-10T06:27:50;3.80;;;1.77;;
44746;SDS011;30472;49.490;10.972;2023-05-10T06:30:20;1.30;;;1.23;;
44746;SDS011;30472;49.490;10.972;2023-05-10T06:32:47;1.50;;;1.40;;
44746;SDS011;30472;49.490;10.972;2023-05-10T06:35:13;1.50;;;1.40;;
44746;SDS011;30472;49.490;10.972;2023-05-10T06:37:39;1.40;;;1.30;;
44746;SDS011;30472;49.490;10.972;2023-05-10T06:40:05;1.43;;;1.33;;
44746;SDS011;30472;49.490;10.972;2023-05-10T06:42:31;3.00;;;1.53;;
44746;SDS011;30472;49.490;10.972;2023-05-10T06:44:57;1.70;;;1.57;;
44746;SDS011;30472;49.490;10.972;2023-05-10T06:47:22;1.80;;;1.30;;
44746;SDS011;30472;49.490;10.972;2023-05-10T06:49:48;3.03;;;1.50;;
44746;SDS011;30472;49.490;10.972;2023-05-10T06:52:14;1.20;;;1.10;;
44746;SDS011;30472;49.490;10.972;2023-05-10T06:54:39;1.47;;;1.00;;
44746;SDS011;30472;49.490;10.972;2023-05-10T06:57:05;0.87;;;0.83;;
44746;SDS011;30472;49.490;10.972;2023-05-10T06:59:30;1.10;;;1.10;;
44746;SDS011;30472;49.490;10.972;2023-05-10T07:01:56;1.50;;;1.30;;
44746;SDS011;30472;49.490;10.972;2023-05-10T07:04:22;1.57;;;0.90;;
44746;SDS011;30472;49.490;10.972;2023-05-10T07:06:47;2.07;;;0.90;;
44746;SDS011;30472;49.490;10.972;2023-05-10T07:09:14;1.83;;;0.70;;
44746;SDS011;30472;49.490;10.972;2023-05-10T07:11:40;1.53;;;1.10;;
44746;SDS011;30472;49.490;10.972;2023-05-10T07:14:06;2.20;;;0.90;;
44746;SDS011;30472;49.490;10.972;2023-05-10T07:16:31;0.90;;;0.80;;
44746;SDS011;30472;49.490;10.972;2023-05-10T07:18:57;2.27;;;0.70;;
44746;SDS011;30472;49.490;10.972;2023-05-10T07:21:22;1.13;;;1.00;;
44746;SDS011;30472;49.490;10.972;2023-05-10T07:23:53;0.90;;;0.90;;
44746;SDS011;30472;49.490;10.972;2023-05-10T07:26:19;1.00;;;1.00;;
44746;SDS011;30472;49.490;10.972;2023-05-10T07:28:45;0.97;;;0.97;;
44746;SDS011;30472;49.490;10.972;2023-05-10T07:31:11;2.57;;;1.20;;
44746;SDS011;30472;49.490;10.972;2023-05-10T07:33:37;1.23;;;1.10;;
44746;SDS011;30472;49.490;10.972;2023-05-10T07:36:02;2.00;;;1.10;;
44746;SDS011;30472;49.490;10.972;2023-05-10T07:38:28;1.27;;;1.17;;
44746;SDS011;30472;49.490;10.972;2023-05-10T07:40:54;0.90;;;0.90;;
44746;SDS011;30472;49.490;10.972;2023-05-10T07:43:19;1.93;;;1.30;;
44746;SDS011;30472;49.490;10.972;2023-05-10T07:45:45;2.63;;;1.40;;
44746;SDS011;30472;49.490;10.972;2023-05-10T07:48:10;1.73;;;1.40;;
44746;SDS011;30472;49.490;10.972;2023-05-10T07:50:36;4.20;;;1.37;;
44746;SDS011;30472;49.490;10.972;2023-05-10T07:53:01;1.30;;;1.10;;
44746;SDS011;30472;49.490;10.972;2023-05-10T07:55:27;1.30;;;1.20;;
44746;SDS011;30472;49.490;10.972;2023-05-10T07:57:52;2.60;;;1.60;;
44746;SDS011;30472;49.490;10.972;2023-05-10T08:00:18;1.87;;;1.67;;
44746;SDS011;30472;49.490;10.972;2023-05-10T08:02:45;2.60;;;1.60;;
44746;SDS011;30472;49.490;10.972;2023-05-10T08:05:10;2.30;;;1.40;;
44746;SDS011;30472;49.490;10.972;2023-05-10T08:07:36;2.20;;;1.50;;
44746;SDS011;30472;49.490;10.972;2023-05-10T08:10:02;1.57;;;1.47;;
44746;SDS011;30472;49.490;10.972;2023-05-10T08:12:28;1.73;;;1.53;;
44746;SDS011;30472;49.490;10.972;2023-05-10T08:14:53;4.23;;;1.80;;
44746;SDS011;30472;49.490;10.972;2023-05-10T08:17:19;2.03;;;1.60;;
44746;SDS011;30472;49.490;10.972;2023-05-10T08:19:45;3.07;;;1.70;;
44746;SDS011;30472;49.490;10.972;2023-05-10T08:22:10;1.77;;;1.67;;
44746;SDS011;30472;49.490;10.972;2023-05-10T08:24:36;4.90;;;1.90;;
44746;SDS011;30472;49.490;10.972;2023-05-10T08:27:04;1.50;;;1.40;;
44746;SDS011;30472;49.490;10.972;2023-05-10T08:29:30;2.33;;;1.40;;
44746;SDS011;30472;49.490;10.972;2023-05-10T08:31:56;4.00;;;1.60;;
44746;SDS011;30472;49.490;10.972;2023-05-10T08:34:21;1.43;;;1.30;;
44746;SDS011;30472;49.490;10.972;2023-05-10T08:36:47;2.93;;;1.27;;
44746;SDS011;30472;49.490;10.972;2023-05-10T08:39:12;3.00;;;1.40;;
44746;SDS011;30472;49.490;10.972;2023-05-10T08:41:38;1.73;;;1.30;;
44746;SDS011;30472;49.490;10.972;2023-05-10T08:44:05;2.10;;;1.70;;
44746;SDS011;30472;49.490;10.972;2023-05-10T08:46:33;1.83;;;1.40;;
44746;SDS011;30472;49.490;10.972;2023-05-10T08:49:03;1.57;;;1.30;;
44746;SDS011;30472;49.490;10.972;2023-05-10T08:51:29;3.43;;;1.20;;
44746;SDS011;30472;49.490;10.972;2023-05-10T08:54:00;1.33;;;1.23;;
44746;SDS011;30472;49.490;10.972;2023-05-10T08:56:26;3.07;;;1.50;;
44746;SDS011;30472;49.490;10.972;2023-05-10T08:58:52;1.80;;;1.23;;
44746;SDS011;30472;49.490;10.972;2023-05-10T09:01:18;4.00;;;1.53;;
44746;SDS011;30472;49.490;10.972;2023-05-10T09:03:46;1.60;;;1.40;;
44746;SDS011;30472;49.490;10.972;2023-05-10T09:06:13;3.27;;;1.67;;
44746;SDS011;30472;49.490;10.972;2023-05-10T09:08:38;5.53;;;2.30;;
44746;SDS011;30472;49.490;10.972;2023-05-10T09:11:06;4.97;;;1.77;;
44746;SDS011;30472;49.490;10.972;2023-05-10T09:13:33;4.63;;;2.27;;
44746;SDS011;30472;49.490;10.972;2023-05-10T09:16:00;7.03;;;2.30;;
44746;SDS011;30472;49.490;10.972;2023-05-10T09:18:27;2.60;;;2.40;;
44746;SDS011;30472;49.490;10.972;2023-05-10T09:20:53;2.73;;;2.53;;
44746;SDS011;30472;49.490;10.972;2023-05-10T09:23:19;3.43;;;2.63;;
44746;SDS011;30472;49.490;10.972;2023-05-10T09:25:45;3.43;;;2.63;;
44746;SDS011;30472;49.490;10.972;2023-05-10T09:28:11;2.70;;;2.50;;
44746;SDS011;30472;49.490;10.972;2023-05-10T09:30:36;3.10;;;2.40;;
44746;SDS011;30472;49.490;10.972;2023-05-10T09:33:02;2.70;;;2.50;;
44746;SDS011;30472;49.490;10.972;2023-05-10T09:35:29;4.27;;;2.20;;
44746;SDS011;30472;49.490;10.972;2023-05-10T09:37:59;3.93;;;2.20;;
44746;SDS011;30472;49.490;10.972;2023-05-10T09:40:28;3.37;;;1.90;;
44746;SDS011;30472;49.490;10.972;2023-05-10T09:42:55;2.67;;;1.70;;
44746;SDS011;30472;49.490;10.972;2023-05-10T09:45:40;2.17;;;1.63;;
44746;SDS011;30472;49.490;10.972;2023-05-10T09:48:06;1.90;;;1.40;;
44746;SDS011;30472;49.490;10.972;2023-05-10T09:50:32;1.40;;;1.07;;
44746;SDS011;30472;49.490;10.972;2023-05-10T09:52:59;3.53;;;1.10;;
44746;SDS011;30472;49.490;10.972;2023-05-10T09:55:45;4.07;;;1.30;;
44746;SDS011;30472;49.490;10.972;2023-05-10T09:58:14;1.33;;;1.00;;
44746;SDS011;30472;49.490;10.972;2023-05-10T10:00:41;2.33;;;1.00;;
44746;SDS011;30472;49.490;10.972;2023-05-10T10:03:18;1.83;;;1.20;;
44746;SDS011;30472;49.490;10.972;2023-05-10T10:05:47;1.92;;;1.38;;
44746;SDS011;30472;49.490;10.972;2023-05-10T10:08:14;1.60;;;1.10;;
44746;SDS011;30472;49.490;10.972;2023-05-10T10:10:40;2.97;;;1.02;;
44746;SDS011;30472;49.490;10.972;2023-05-10T10:13:07;2.15;;;1.10;;
44746;SDS011;30472;49.490;10.972;2023-05-10T10:15:33;1.45;;;1.23;;
44746;SDS011;30472;49.490;10.972;2023-05-10T10:18:00;1.63;;;1.10;;
44746;SDS011;30472;49.490;10.972;2023-05-10T10:20:26;2.33;;;1.25;;
44746;SDS011;30472;49.490;10.972;2023-05-10T10:22:53;2.88;;;1.30;;
44746;SDS011;30472;49.490;10.972;2023-05-10T10:25:19;1.50;;;1.10;;
44746;SDS011;30472;49.490;10.972;2023-05-10T10:30:24;2.42;;;1.10;;
44746;SDS011;30472;49.490;10.972;2023-05-10T10:35:44;1.30;;;0.93;;
44746;SDS011;30472;49.490;10.972;2023-05-10T10:38:12;1.97;;;1.30;;
44746;SDS011;30472;49.490;10.972;2023-05-10T10:40:38;3.03;;;1.10;;
44746;SDS011;30472;49.490;10.972;2023-05-10T10:46:09;1.50;;;1.20;;
44746;SDS011;30472;49.490;10.972;2023-05-10T10:48:49;3.83;;;1.23;;
44746;SDS011;30472;49.490;10.972;2023-05-10T10:51:36;3.27;;;1.20;;
44746;SDS011;30472;49.490;10.972;2023-05-10T10:54:11;2.93;;;1.47;;
44746;SDS011;30472;49.490;10.972;2023-05-10T10:56:37;1.83;;;1.40;;
44746;SDS011;30472;49.490;10.972;2023-05-10T10:59:02;3.03;;;1.50;;
44746;SDS011;30472;49.490;10.972;2023-05-10T11:01:34;5.20;;;1.57;;
44746;SDS011;30472;49.490;10.972;2023-05-10T11:06:29;1.87;;;1.63;;
44746;SDS011;30472;49.490;10.972;2023-05-10T11:08:56;3.13;;;1.67;;
44746;SDS011;30472;49.490;10.972;2023-05-10T11:11:22;1.97;;;1.70;;
44746;SDS011;30472;49.490;10.972;2023-05-10T11:13:48;5.07;;;1.63;;
44746;SDS011;30472;49.490;10.972;2023-05-10T11:16:23;3.40;;;1.83;;
44746;SDS011;30472;49.490;10.972;2023-05-10T11:18:53;2.73;;;1.40;;
44746;SDS011;30472;49.490;10.972;2023-05-10T11:21:22;3.73;;;1.30;;
44746;SDS011;30472;49.490;10.972;2023-05-10T11:23:49;1.67;;;1.43;;
44746;SDS011;30472;49.490;10.972;2023-05-10T11:26:16;1.40;;;1.30;;
44746;SDS011;30472;49.490;10.972;2023-05-10T11:28:43;2.10;;;1.53;;
44746;SDS011;30472;49.490;10.972;2023-05-10T11:31:10;1.93;;;1.20;;
44746;SDS011;30472;49.490;10.972;2023-05-10T11:33:44;2.37;;;1.47;;
44746;SDS011;30472;49.490;10.972;2023-05-10T11:36:10;1.83;;;1.40;;
44746;SDS011;30472;49.490;10.972;2023-05-10T11:38:37;1.70;;;1.30;;
44746;SDS011;30472;49.490;10.972;2023-05-10T11:41:02;2.07;;;1.37;;
44746;SDS011;30472;49.490;10.972;2023-05-10T11:43:28;1.03;;;1.00;;
44746;SDS011;30472;49.490;10.972;2023-05-10T11:45:55;3.77;;;1.60;;
44746;SDS011;30472;49.490;10.972;2023-05-10T11:48:21;3.53;;;1.50;;
44746;SDS011;30472;49.490;10.972;2023-05-10T11:50:48;1.43;;;1.13;;
44746;SDS011;30472;49.490;10.972;2023-05-10T11:53:14;1.87;;;1.20;;
44746;SDS011;30472;49.490;10.972;2023-05-10T11:55:40;2.53;;;1.20;;
44746;SDS011;30472;49.490;10.972;2023-05-10T11:58:06;0.93;;;0.90;;
44746;SDS011;30472;49.490;10.972;2023-05-10T12:00:31;1.37;;;1.20;;
44746;SDS011;30472;49.490;10.972;2023-05-10T12:02:57;1.30;;;1.20;;
44746;SDS011;30472;49.490;10.972;2023-05-10T12:05:23;7.70;;;1.67;;
44746;SDS011;30472;49.490;10.972;2023-05-10T12:07:49;1.70;;;1.30;;
44746;SDS011;30472;49.490;10.972;2023-05-10T12:10:15;2.70;;;1.50;;
44746;SDS011;30472;49.490;10.972;2023-05-10T12:12:43;1.33;;;1.20;;
44746;SDS011;30472;49.490;10.972;2023-05-10T12:15:19;1.50;;;1.30;;
44746;SDS011;30472;49.490;10.972;2023-05-10T12:17:47;2.00;;;1.40;;
44746;SDS011;30472;49.490;10.972;2023-05-10T12:20:17;1.70;;;1.30;;
44746;SDS011;30472;49.490;10.972;2023-05-10T12:22:53;1.40;;;1.30;;
44746;SDS011;30472;49.490;10.972;2023-05-10T12:25:21;1.60;;;1.20;;
44746;SDS011;30472;49.490;10.972;2023-05-10T12:27:52;2.13;;;1.10;;
44746;SDS011;30472;49.490;10.972;2023-05-10T12:30:23;1.20;;;0.97;;
44746;SDS011;30472;49.490;10.972;2023-05-10T12:32:50;2.60;;;1.30;;
44746;SDS011;30472;49.490;10.972;2023-05-10T12:35:16;4.40;;;1.10;;
44746;SDS011;30472;49.490;10.972;2023-05-10T12:37:45;2.23;;;0.90;;
44746;SDS011;30472;49.490;10.972;2023-05-10T12:40:11;5.20;;;1.03;;
44746;SDS011;30472;49.490;10.972;2023-05-10T12:42:37;1.87;;;1.10;;
44746;SDS011;30472;49.490;10.972;2023-05-10T12:45:04;2.30;;;1.00;;
44746;SDS011;30472;49.490;10.972;2023-05-10T12:47:30;5.63;;;1.63;;
44746;SDS011;30472;49.490;10.972;2023-05-10T12:49:56;2.63;;;0.93;;
44746;SDS011;30472;49.490;10.972;2023-05-10T12:52:22;4.10;;;1.40;;
44746;SDS011;30472;49.490;10.972;2023-05-10T12:54:48;3.00;;;1.57;;
44746;SDS011;30472;49.490;10.972;2023-05-10T12:57:14;5.63;;;2.00;;
44746;SDS011;30472;49.490;10.972;2023-05-10T12:59:39;7.63;;;2.73;;
44746;SDS011;30472;49.490;10.972;2023-05-10T13:02:05;7.23;;;3.00;;
44746;SDS011;30472;49.490;10.972;2023-05-10T13:04:31;7.27;;;2.30;;
44746;SDS011;30472;49.490;10.972;2023-05-10T13:06:57;3.33;;;1.80;;
44746;SDS011;30472;49.490;10.972;2023-05-10T13:09:24;3.30;;;1.90;;
44746;SDS011;30472;49.490;10.972;2023-05-10T13:11:51;4.33;;;1.80;;
44746;SDS011;30472;49.490;10.972;2023-05-10T13:14:18;3.50;;;2.30;;
44746;SDS011;30472;49.490;10.972;2023-05-10T13:16:45;5.73;;;2.00;;
44746;SDS011;30472;49.490;10.972;2023-05-10T13:19:11;2.77;;;2.10;;
44746;SDS011;30472;49.490;10.972;2023-05-10T13:21:37;2.13;;;1.87;;
44746;SDS011;30472;49.490;10.972;2023-05-10T13:24:03;2.73;;;1.67;;
44746;SDS011;30472;49.490;10.972;2023-05-10T13:26:28;3.87;;;1.80;;
44746;SDS011;30472;49.490;10.972;2023-05-10T13:28:54;3.93;;;1.80;;
44746;SDS011;30472;49.490;10.972;2023-05-10T13:31:22;2.67;;;1.57;;
44746;SDS011;30472;49.490;10.972;2023-05-10T13:33:47;1.73;;;1.37;;
44746;SDS011;30472;49.490;10.972;2023-05-10T13:36:13;5.53;;;1.40;;
44746;SDS011;30472;49.490;10.972;2023-05-10T13:38:38;1.57;;;1.27;;
44746;SDS011;30472;49.490;10.972;2023-05-10T13:41:04;1.47;;;1.20;;
44746;SDS011;30472;49.490;10.972;2023-05-10T13:43:29;1.30;;;1.20;;
44746;SDS011;30472;49.490;10.972;2023-05-10T13:45:55;2.50;;;1.23;;
44746;SDS011;30472;49.490;10.972;2023-05-10T13:48:21;1.00;;;0.90;;
44746;SDS011;30472;49.490;10.972;2023-05-10T13:50:46;1.27;;;0.80;;
44746;SDS011;30472;49.490;10.972;2023-05-10T13:53:12;2.67;;;1.00;;
44746;SDS011;30472;49.490;10.972;2023-05-10T13:55:38;2.10;;;1.07;;
44746;SDS011;30472;49.490;10.972;2023-05-10T13:58:03;1.97;;;1.10;;
44746;SDS011;30472;49.490;10.972;2023-05-10T14:00:29;2.37;;;1.00;;
44746;SDS011;30472;49.490;10.972;2023-05-10T14:02:55;1.07;;;1.03;;
44746;SDS011;30472;49.490;10.972;2023-05-10T14:05:21;1.30;;;1.00;;
44746;SDS011;30472;49.490;10.972;2023-05-10T14:07:46;2.47;;;1.00;;
44746;SDS011;30472;49.490;10.972;2023-05-10T14:10:12;1.37;;;0.90;;
44746;SDS011;30472;49.490;10.972;2023-05-10T14:12:37;2.13;;;1.07;;
44746;SDS011;30472;49.490;10.972;2023-05-10T14:15:03;1.60;;;1.00;;
44746;SDS011;30472;49.490;10.972;2023-05-10T14:17:31;2.33;;;1.03;;
44746;SDS011;30472;49.490;10.972;2023-05-10T14:19:57;5.73;;;1.30;;
44746;SDS011;30472;49.490;10.972;2023-05-10T14:22:22;2.73;;;1.10;;
44746;SDS011;30472;49.490;10.972;2023-05-10T14:24:48;1.60;;;1.00;;
44746;SDS011;30472;49.490;10.972;2023-05-10T14:27:15;3.10;;;1.60;;
44746;SDS011;30472;49.490;10.972;2023-05-10T14:29:41;1.13;;;1.03;;
44746;SDS011;30472;49.490;10.972;2023-05-10T14:32:06;1.70;;;0.90;;
44746;SDS011;30472;49.490;10.972;2023-05-10T14:34:32;1.23;;;1.10;;
44746;SDS011;30472;49.490;10.972;2023-05-10T14:36:58;1.10;;;1.00;;
44746;SDS011;30472;49.490;10.972;2023-05-10T14:39:23;1.20;;;1.10;;
44746;SDS011;30472;49.490;10.972;2023-05-10T14:41:49;2.13;;;1.10;;
44746;SDS011;30472;49.490;10.972;2023-05-10T14:44:17;1.20;;;1.10;;
44746;SDS011;30472;49.490;10.972;2023-05-10T14:46:42;1.57;;;1.27;;
44746;SDS011;30472;49.490;10.972;2023-05-10T14:49:08;3.07;;;1.50;;